sensor_id;sensor_type;location;lat;lon;timestamp;temperature;humidity
27978;DHT22;15314;49.248;6.968;2023-02-28T00:00:21;0.50;71.00
27978;DHT22;15314;49.248;6.968;2023-02-28T00:01:22;0.50;71.10
27978;DHT22;15314;49.248;6.968;2023-02-28T00:02:23;0.50;71.40
27978;DHT22;15314;49.248;6.968;2023-02-28T00:03:24;0.50;71.50
27978;DHT22;15314;49.248;6.968;2023-02-28T00:04:25;0.50;71.10
27978;DHT22;15314;49.248;6.968;2023-02-28T00:05:26;0.50;71.30
27978;DHT22;15314;49.248;6.968;2023-02-28T00:06:28;0.40;71.70
27978;DHT22;15314;49.248;6.968;2023-02-28T00:07:30;0.40;71.60
27978;DHT22;15314;49.248;6.968;2023-02-28T00:08:31;0.40;71.60
27978;DHT22;15314;49.248;6.968;2023-02-28T00:09:31;0.40;71.60
27978;DHT22;15314;49.248;6.968;2023-02-28T00:10:32;0.40;71.50
27978;DHT22;15314;49.248;6.968;2023-02-28T00:11:33;0.40;71.40
27978;DHT22;15314;49.248;6.968;2023-02-28T00:12:34;0.40;71.50
27978;DHT22;15314;49.248;6.968;2023-02-28T00:13:36;0.40;71.90
27978;DHT22;15314;49.248;6.968;2023-02-28T00:14:37;0.60;71.80
27978;DHT22;15314;49.248;6.968;2023-02-28T00:15:38;0.40;71.40
27978;DHT22;15314;49.248;6.968;2023-02-28T00:16:39;0.40;71.70
27978;DHT22;15314;49.248;6.968;2023-02-28T00:17:39;0.40;71.80
27978;DHT22;15314;49.248;6.968;2023-02-28T00:18:40;0.40;72.10
27978;DHT22;15314;49.248;6.968;2023-02-28T00:19:41;0.40;72.00
27978;DHT22;15314;49.248;6.968;2023-02-28T00:20:41;0.40;71.90
27978;DHT22;15314;49.248;6.968;2023-02-28T00:21:43;0.40;71.80
27978;DHT22;15314;49.248;6.968;2023-02-28T00:22:46;0.40;72.30
27978;DHT22;15314;49.248;6.968;2023-02-28T00:23:47;0.30;72.00
27978;DHT22;15314;49.248;6.968;2023-02-28T00:24:48;0.30;72.10
27978;DHT22;15314;49.248;6.968;2023-02-28T00:25:50;0.30;72.40
27978;DHT22;15314;49.248;6.968;2023-02-28T00:26:50;0.30;72.20
27978;DHT22;15314;49.248;6.968;2023-02-28T00:27:51;0.30;72.30
27978;DHT22;15314;49.248;6.968;2023-02-28T00:28:52;0.30;72.40
27978;DHT22;15314;49.248;6.968;2023-02-28T00:29:53;0.30;72.20
27978;DHT22;15314;49.248;6.968;2023-02-28T00:30:54;0.30;72.30
27978;DHT22;15314;49.248;6.968;2023-02-28T00:31:55;0.30;72.20
27978;DHT22;15314;49.248;6.968;2023-02-28T00:32:55;0.30;72.30
27978;DHT22;15314;49.248;6.968;2023-02-28T00:33:56;0.30;72.50
27978;DHT22;15314;49.248;6.968;2023-02-28T00:34:56;0.30;72.60
27978;DHT22;15314;49.248;6.968;2023-02-28T00:36:05;0.30;72.70
27978;DHT22;15314;49.248;6.968;2023-02-28T00:37:08;0.30;72.70
27978;DHT22;15314;49.248;6.968;2023-02-28T00:38:09;0.30;72.30
27978;DHT22;15314;49.248;6.968;2023-02-28T00:39:10;0.30;72.30
27978;DHT22;15314;49.248;6.968;2023-02-28T00:40:11;0.30;72.50
27978;DHT22;15314;49.248;6.968;2023-02-28T00:41:13;0.30;72.40
27978;DHT22;15314;49.248;6.968;2023-02-28T00:42:13;0.30;72.50
27978;DHT22;15314;49.248;6.968;2023-02-28T00:43:14;0.30;72.50
27978;DHT22;15314;49.248;6.968;2023-02-28T00:44:14;0.30;72.50
27978;DHT22;15314;49.248;6.968;2023-02-28T00:45:15;0.30;72.70
27978;DHT22;15314;49.248;6.968;2023-02-28T00:46:16;0.20;72.40
27978;DHT22;15314;49.248;6.968;2023-02-28T00:47:16;0.30;73.00
27978;DHT22;15314;49.248;6.968;2023-02-28T00:48:17;0.20;72.90
27978;DHT22;15314;49.248;6.968;2023-02-28T00:49:18;0.30;72.80
27978;DHT22;15314;49.248;6.968;2023-02-28T00:50:19;0.20;72.60
27978;DHT22;15314;49.248;6.968;2023-02-28T00:51:20;0.30;72.50
27978;DHT22;15314;49.248;6.968;2023-02-28T00:52:21;0.30;72.90
27978;DHT22;15314;49.248;6.968;2023-02-28T00:53:22;0.30;73.20
27978;DHT22;15314;49.248;6.968;2023-02-28T00:54:23;0.30;72.70
27978;DHT22;15314;49.248;6.968;2023-02-28T00:55:24;0.30;72.70
27978;DHT22;15314;49.248;6.968;2023-02-28T00:56:24;0.30;72.80
27978;DHT22;15314;49.248;6.968;2023-02-28T00:57:25;0.30;72.90
27978;DHT22;15314;49.248;6.968;2023-02-28T00:58:26;0.20;72.90
27978;DHT22;15314;49.248;6.968;2023-02-28T00:59:27;0.30;73.10
27978;DHT22;15314;49.248;6.968;2023-02-28T01:00:28;0.20;73.00
27978;DHT22;15314;49.248;6.968;2023-02-28T01:01:28;0.20;73.40
27978;DHT22;15314;49.248;6.968;2023-02-28T01:02:29;0.20;74.00
27978;DHT22;15314;49.248;6.968;2023-02-28T01:03:30;0.20;73.50
27978;DHT22;15314;49.248;6.968;2023-02-28T01:04:30;0.20;73.50
27978;DHT22;15314;49.248;6.968;2023-02-28T01:05:31;0.30;73.50
27978;DHT22;15314;49.248;6.968;2023-02-28T01:06:31;0.20;73.30
27978;DHT22;15314;49.248;6.968;2023-02-28T01:07:32;0.20;73.40
27978;DHT22;15314;49.248;6.968;2023-02-28T01:08:33;0.20;73.70
27978;DHT22;15314;49.248;6.968;2023-02-28T01:09:33;0.20;73.60
27978;DHT22;15314;49.248;6.968;2023-02-28T01:10:35;0.10;73.50
27978;DHT22;15314;49.248;6.968;2023-02-28T01:11:37;0.10;73.40
27978;DHT22;15314;49.248;6.968;2023-02-28T01:12:38;0.20;73.50
27978;DHT22;15314;49.248;6.968;2023-02-28T01:13:38;0.20;73.80
27978;DHT22;15314;49.248;6.968;2023-02-28T01:14:39;0.20;73.40
27978;DHT22;15314;49.248;6.968;2023-02-28T01:15:45;0.20;73.30
27978;DHT22;15314;49.248;6.968;2023-02-28T01:16:46;0.20;73.10
27978;DHT22;15314;49.248;6.968;2023-02-28T01:17:47;0.20;73.30
27978;DHT22;15314;49.248;6.968;2023-02-28T01:18:48;0.20;73.30
27978;DHT22;15314;49.248;6.968;2023-02-28T01:19:48;0.20;73.90
27978;DHT22;15314;49.248;6.968;2023-02-28T01:20:49;0.20;73.90
27978;DHT22;15314;49.248;6.968;2023-02-28T01:21:52;0.20;73.60
27978;DHT22;15314;49.248;6.968;2023-02-28T01:22:52;0.30;73.50
27978;DHT22;15314;49.248;6.968;2023-02-28T01:23:56;0.10;73.90
27978;DHT22;15314;49.248;6.968;2023-02-28T01:24:56;0.10;74.10
27978;DHT22;15314;49.248;6.968;2023-02-28T01:25:57;0.10;74.20
27978;DHT22;15314;49.248;6.968;2023-02-28T01:26:58;0.10;74.10
27978;DHT22;15314;49.248;6.968;2023-02-28T01:27:58;0.10;73.90
27978;DHT22;15314;49.248;6.968;2023-02-28T01:28:59;0.10;74.20
27978;DHT22;15314;49.248;6.968;2023-02-28T01:29:59;0.10;74.20
27978;DHT22;15314;49.248;6.968;2023-02-28T01:31:00;0.00;74.50
27978;DHT22;15314;49.248;6.968;2023-02-28T01:32:01;0.10;74.40
27978;DHT22;15314;49.248;6.968;2023-02-28T01:33:01;0.00;74.20
27978;DHT22;15314;49.248;6.968;2023-02-28T01:34:02;0.00;75.10
27978;DHT22;15314;49.248;6.968;2023-02-28T01:35:03;0.00;74.80
27978;DHT22;15314;49.248;6.968;2023-02-28T01:36:07;0.00;75.00
27978;DHT22;15314;49.248;6.968;2023-02-28T01:37:09;0.00;74.70
27978;DHT22;15314;49.248;6.968;2023-02-28T01:38:10;0.00;74.90
27978;DHT22;15314;49.248;6.968;2023-02-28T01:39:10;0.00;75.10
27978;DHT22;15314;49.248;6.968;2023-02-28T01:40:13;0.00;75.00
27978;DHT22;15314;49.248;6.968;2023-02-28T01:41:27;0.00;75.00
27978;DHT22;15314;49.248;6.968;2023-02-28T01:42:28;0.00;75.50
27978;DHT22;15314;49.248;6.968;2023-02-28T01:43:32;0.00;75.70
27978;DHT22;15314;49.248;6.968;2023-02-28T01:44:55;-0.10;75.40
27978;DHT22;15314;49.248;6.968;2023-02-28T01:45:58;-0.10;75.40
27978;DHT22;15314;49.248;6.968;2023-02-28T01:46:59;0.00;75.50
27978;DHT22;15314;49.248;6.968;2023-02-28T01:48:06;-0.10;76.00
27978;DHT22;15314;49.248;6.968;2023-02-28T01:49:16;-0.10;75.90
27978;DHT22;15314;49.248;6.968;2023-02-28T01:50:20;-0.10;75.70
27978;DHT22;15314;49.248;6.968;2023-02-28T01:51:31;-0.10;76.00
27978;DHT22;15314;49.248;6.968;2023-02-28T01:52:34;-0.10;76.10
27978;DHT22;15314;49.248;6.968;2023-02-28T01:53:39;-0.10;76.10
27978;DHT22;15314;49.248;6.968;2023-02-28T01:54:42;-0.10;76.50
27978;DHT22;15314;49.248;6.968;2023-02-28T01:55:46;0.00;76.30
27978;DHT22;15314;49.248;6.968;2023-02-28T01:56:57;-0.20;76.20
27978;DHT22;15314;49.248;6.968;2023-02-28T01:58:01;-0.10;76.40
27978;DHT22;15314;49.248;6.968;2023-02-28T01:59:03;-0.20;76.20
27978;DHT22;15314;49.248;6.968;2023-02-28T02:00:10;-0.20;76.70
27978;DHT22;15314;49.248;6.968;2023-02-28T02:01:13;-0.20;76.70
27978;DHT22;15314;49.248;6.968;2023-02-28T02:02:23;-0.10;76.50
27978;DHT22;15314;49.248;6.968;2023-02-28T02:03:24;-0.10;76.60
27978;DHT22;15314;49.248;6.968;2023-02-28T02:04:41;-0.10;76.50
27978;DHT22;15314;49.248;6.968;2023-02-28T02:05:46;-0.10;76.90
27978;DHT22;15314;49.248;6.968;2023-02-28T02:06:48;-0.20;76.70
27978;DHT22;15314;49.248;6.968;2023-02-28T02:07:52;-0.20;76.80
27978;DHT22;15314;49.248;6.968;2023-02-28T02:08:55;-0.20;76.70
27978;DHT22;15314;49.248;6.968;2023-02-28T02:10:06;-0.20;77.10
27978;DHT22;15314;49.248;6.968;2023-02-28T02:11:09;-0.20;77.10
27978;DHT22;15314;49.248;6.968;2023-02-28T02:12:43;-0.20;77.00
27978;DHT22;15314;49.248;6.968;2023-02-28T02:13:58;-0.20;77.10
27978;DHT22;15314;49.248;6.968;2023-02-28T02:15:16;-0.20;77.30
27978;DHT22;15314;49.248;6.968;2023-02-28T02:17:41;-0.20;77.20
27978;DHT22;15314;49.248;6.968;2023-02-28T02:27:59;-0.30;77.70
27978;DHT22;15314;49.248;6.968;2023-02-28T02:32:16;-0.40;78.60
27978;DHT22;15314;49.248;6.968;2023-02-28T02:33:33;-0.40;78.30
27978;DHT22;15314;49.248;6.968;2023-02-28T02:34:56;-0.40;78.70
27978;DHT22;15314;49.248;6.968;2023-02-28T02:37:24;-0.30;78.60
27978;DHT22;15314;49.248;6.968;2023-02-28T02:38:50;-0.40;78.80
27978;DHT22;15314;49.248;6.968;2023-02-28T02:42:00;-0.40;78.20
27978;DHT22;15314;49.248;6.968;2023-02-28T02:43:08;-0.30;79.10
27978;DHT22;15314;49.248;6.968;2023-02-28T02:45:34;-0.30;78.90
27978;DHT22;15314;49.248;6.968;2023-02-28T02:46:42;-0.30;78.80
27978;DHT22;15314;49.248;6.968;2023-02-28T02:47:45;-0.30;78.70
27978;DHT22;15314;49.248;6.968;2023-02-28T02:48:46;-0.30;78.80
27978;DHT22;15314;49.248;6.968;2023-02-28T02:49:51;-0.30;78.90
27978;DHT22;15314;49.248;6.968;2023-02-28T02:50:55;-0.30;78.80
27978;DHT22;15314;49.248;6.968;2023-02-28T02:52:00;-0.30;79.20
27978;DHT22;15314;49.248;6.968;2023-02-28T02:53:03;-0.30;79.40
27978;DHT22;15314;49.248;6.968;2023-02-28T02:54:14;-0.30;79.20
27978;DHT22;15314;49.248;6.968;2023-02-28T02:55:20;-0.30;78.80
27978;DHT22;15314;49.248;6.968;2023-02-28T02:56:26;-0.30;78.70
27978;DHT22;15314;49.248;6.968;2023-02-28T02:57:36;-0.30;79.00
27978;DHT22;15314;49.248;6.968;2023-02-28T02:58:41;-0.30;79.20
27978;DHT22;15314;49.248;6.968;2023-02-28T02:59:43;-0.30;79.40
27978;DHT22;15314;49.248;6.968;2023-02-28T03:00:48;-0.30;79.00
27978;DHT22;15314;49.248;6.968;2023-02-28T03:01:54;-0.30;79.10
27978;DHT22;15314;49.248;6.968;2023-02-28T03:02:56;-0.30;79.10
27978;DHT22;15314;49.248;6.968;2023-02-28T03:03:59;-0.30;79.30
27978;DHT22;15314;49.248;6.968;2023-02-28T03:05:06;-0.40;79.20
27978;DHT22;15314;49.248;6.968;2023-02-28T03:06:08;-0.30;79.70
27978;DHT22;15314;49.248;6.968;2023-02-28T03:07:09;-0.30;79.20
27978;DHT22;15314;49.248;6.968;2023-02-28T03:08:10;-0.30;79.10
27978;DHT22;15314;49.248;6.968;2023-02-28T03:09:10;-0.30;79.30
27978;DHT22;15314;49.248;6.968;2023-02-28T03:10:35;-0.30;79.40
27978;DHT22;15314;49.248;6.968;2023-02-28T03:11:37;-0.30;79.20
27978;DHT22;15314;49.248;6.968;2023-02-28T03:12:50;-0.30;79.20
27978;DHT22;15314;49.248;6.968;2023-02-28T03:15:58;-0.20;79.30
27978;DHT22;15314;49.248;6.968;2023-02-28T03:18:32;-0.20;79.60
27978;DHT22;15314;49.248;6.968;2023-02-28T03:19:52;-0.30;79.60
27978;DHT22;15314;49.248;6.968;2023-02-28T03:21:19;-0.30;79.60
27978;DHT22;15314;49.248;6.968;2023-02-28T03:22:45;-0.20;79.50
27978;DHT22;15314;49.248;6.968;2023-02-28T03:24:03;-0.20;79.50
27978;DHT22;15314;49.248;6.968;2023-02-28T03:26:19;-0.30;79.80
27978;DHT22;15314;49.248;6.968;2023-02-28T03:27:30;-0.30;80.00
27978;DHT22;15314;49.248;6.968;2023-02-28T03:28:49;-0.40;80.20
27978;DHT22;15314;49.248;6.968;2023-02-28T03:30:04;-0.40;80.40
27978;DHT22;15314;49.248;6.968;2023-02-28T03:31:21;-0.40;80.90
27978;DHT22;15314;49.248;6.968;2023-02-28T03:35:23;-0.50;80.70
27978;DHT22;15314;49.248;6.968;2023-02-28T03:36:29;-0.50;80.60
27978;DHT22;15314;49.248;6.968;2023-02-28T03:37:31;-0.50;80.90
27978;DHT22;15314;49.248;6.968;2023-02-28T03:38:47;-0.50;80.80
27978;DHT22;15314;49.248;6.968;2023-02-28T03:39:55;-0.50;81.00
27978;DHT22;15314;49.248;6.968;2023-02-28T03:41:10;-0.50;81.20
27978;DHT22;15314;49.248;6.968;2023-02-28T03:42:18;-0.50;81.00
27978;DHT22;15314;49.248;6.968;2023-02-28T03:43:27;-0.50;81.50
27978;DHT22;15314;49.248;6.968;2023-02-28T03:44:37;-0.70;81.30
27978;DHT22;15314;49.248;6.968;2023-02-28T03:45:41;-0.70;81.40
27978;DHT22;15314;49.248;6.968;2023-02-28T03:46:49;-0.60;81.20
27978;DHT22;15314;49.248;6.968;2023-02-28T03:49:00;-0.60;81.50
27978;DHT22;15314;49.248;6.968;2023-02-28T03:50:22;-0.70;81.50
27978;DHT22;15314;49.248;6.968;2023-02-28T03:51:26;-0.70;81.60
27978;DHT22;15314;49.248;6.968;2023-02-28T03:52:31;-0.70;82.10
27978;DHT22;15314;49.248;6.968;2023-02-28T03:53:37;-0.70;82.00
27978;DHT22;15314;49.248;6.968;2023-02-28T03:54:45;-0.70;82.10
27978;DHT22;15314;49.248;6.968;2023-02-28T03:55:52;-0.70;82.20
27978;DHT22;15314;49.248;6.968;2023-02-28T04:00:10;-0.80;82.80
27978;DHT22;15314;49.248;6.968;2023-02-28T04:01:15;-0.80;82.90
27978;DHT22;15314;49.248;6.968;2023-02-28T04:02:17;-0.80;83.20
27978;DHT22;15314;49.248;6.968;2023-02-28T04:03:18;-0.80;83.50
27978;DHT22;15314;49.248;6.968;2023-02-28T04:04:19;-0.80;83.50
27978;DHT22;15314;49.248;6.968;2023-02-28T04:05:21;-0.80;83.30
27978;DHT22;15314;49.248;6.968;2023-02-28T04:06:23;-0.80;83.50
27978;DHT22;15314;49.248;6.968;2023-02-28T04:07:24;-0.90;83.10
27978;DHT22;15314;49.248;6.968;2023-02-28T04:08:24;-0.80;83.60
27978;DHT22;15314;49.248;6.968;2023-02-28T04:09:25;-0.90;83.60
27978;DHT22;15314;49.248;6.968;2023-02-28T04:10:26;-0.90;83.70
27978;DHT22;15314;49.248;6.968;2023-02-28T04:11:35;-0.80;83.80
27978;DHT22;15314;49.248;6.968;2023-02-28T04:12:36;-0.90;83.70
27978;DHT22;15314;49.248;6.968;2023-02-28T04:13:37;-0.90;83.90
27978;DHT22;15314;49.248;6.968;2023-02-28T04:14:37;-0.90;84.10
27978;DHT22;15314;49.248;6.968;2023-02-28T04:15:38;-0.80;84.10
27978;DHT22;15314;49.248;6.968;2023-02-28T04:16:41;-0.90;84.20
27978;DHT22;15314;49.248;6.968;2023-02-28T04:17:41;-0.90;84.40
27978;DHT22;15314;49.248;6.968;2023-02-28T04:18:43;-0.90;84.40
27978;DHT22;15314;49.248;6.968;2023-02-28T04:19:44;-0.90;84.30
27978;DHT22;15314;49.248;6.968;2023-02-28T04:20:44;-0.90;84.40
27978;DHT22;15314;49.248;6.968;2023-02-28T04:21:47;-0.90;84.40
27978;DHT22;15314;49.248;6.968;2023-02-28T04:22:48;-0.90;84.50
27978;DHT22;15314;49.248;6.968;2023-02-28T04:23:49;-0.90;84.60
27978;DHT22;15314;49.248;6.968;2023-02-28T04:24:49;-0.90;84.40
27978;DHT22;15314;49.248;6.968;2023-02-28T04:25:50;-0.90;84.40
27978;DHT22;15314;49.248;6.968;2023-02-28T04:26:54;-0.90;84.80
27978;DHT22;15314;49.248;6.968;2023-02-28T04:27:55;-0.90;84.70
27978;DHT22;15314;49.248;6.968;2023-02-28T04:28:56;-0.90;84.60
27978;DHT22;15314;49.248;6.968;2023-02-28T04:29:56;-0.90;84.80
27978;DHT22;15314;49.248;6.968;2023-02-28T04:31:03;-0.80;84.70
27978;DHT22;15314;49.248;6.968;2023-02-28T04:32:04;-0.90;84.80
27978;DHT22;15314;49.248;6.968;2023-02-28T04:33:05;-1.00;84.90
27978;DHT22;15314;49.248;6.968;2023-02-28T04:34:06;-1.00;85.10
27978;DHT22;15314;49.248;6.968;2023-02-28T04:35:07;-1.00;85.20
27978;DHT22;15314;49.248;6.968;2023-02-28T04:36:08;-1.00;85.00
27978;DHT22;15314;49.248;6.968;2023-02-28T04:37:09;-1.00;84.80
27978;DHT22;15314;49.248;6.968;2023-02-28T04:38:09;-1.00;85.60
27978;DHT22;15314;49.248;6.968;2023-02-28T04:39:10;-1.00;85.70
27978;DHT22;15314;49.248;6.968;2023-02-28T04:40:11;-1.00;85.90
27978;DHT22;15314;49.248;6.968;2023-02-28T04:41:15;-1.00;85.80
27978;DHT22;15314;49.248;6.968;2023-02-28T04:42:16;-1.00;85.70
27978;DHT22;15314;49.248;6.968;2023-02-28T04:43:16;-1.10;85.50
27978;DHT22;15314;49.248;6.968;2023-02-28T04:44:17;-1.00;86.00
27978;DHT22;15314;49.248;6.968;2023-02-28T04:45:17;-1.10;86.20
27978;DHT22;15314;49.248;6.968;2023-02-28T04:46:19;-1.00;86.30
27978;DHT22;15314;49.248;6.968;2023-02-28T04:47:20;-1.00;86.10
27978;DHT22;15314;49.248;6.968;2023-02-28T04:48:20;-1.00;86.20
27978;DHT22;15314;49.248;6.968;2023-02-28T04:49:21;-0.90;86.40
27978;DHT22;15314;49.248;6.968;2023-02-28T04:50:21;-1.00;86.20
27978;DHT22;15314;49.248;6.968;2023-02-28T04:51:22;-1.00;86.10
27978;DHT22;15314;49.248;6.968;2023-02-28T04:52:23;-1.00;86.30
27978;DHT22;15314;49.248;6.968;2023-02-28T04:53:23;-1.00;86.50
27978;DHT22;15314;49.248;6.968;2023-02-28T04:54:24;-1.00;86.60
27978;DHT22;15314;49.248;6.968;2023-02-28T04:55:25;-0.90;86.40
27978;DHT22;15314;49.248;6.968;2023-02-28T04:56:25;-1.00;86.30
27978;DHT22;15314;49.248;6.968;2023-02-28T04:57:26;-0.90;86.30
27978;DHT22;15314;49.248;6.968;2023-02-28T04:58:26;-0.90;86.50
27978;DHT22;15314;49.248;6.968;2023-02-28T04:59:28;-0.90;86.10
27978;DHT22;15314;49.248;6.968;2023-02-28T05:00:28;-0.90;86.40
27978;DHT22;15314;49.248;6.968;2023-02-28T05:01:33;-0.80;86.50
27978;DHT22;15314;49.248;6.968;2023-02-28T05:02:35;-0.90;86.60
27978;DHT22;15314;49.248;6.968;2023-02-28T05:03:35;-1.00;86.20
27978;DHT22;15314;49.248;6.968;2023-02-28T05:04:36;-0.90;86.40
27978;DHT22;15314;49.248;6.968;2023-02-28T05:05:37;-0.80;86.20
27978;DHT22;15314;49.248;6.968;2023-02-28T05:06:37;-0.90;86.30
27978;DHT22;15314;49.248;6.968;2023-02-28T05:07:38;-0.90;86.60
27978;DHT22;15314;49.248;6.968;2023-02-28T05:08:40;-0.90;86.60
27978;DHT22;15314;49.248;6.968;2023-02-28T05:09:41;-0.80;87.00
27978;DHT22;15314;49.248;6.968;2023-02-28T05:10:41;-0.90;86.70
27978;DHT22;15314;49.248;6.968;2023-02-28T05:11:42;-1.00;86.40
27978;DHT22;15314;49.248;6.968;2023-02-28T05:12:43;-1.00;86.50
27978;DHT22;15314;49.248;6.968;2023-02-28T05:13:44;-0.90;86.80
27978;DHT22;15314;49.248;6.968;2023-02-28T05:14:45;-1.00;86.90
27978;DHT22;15314;49.248;6.968;2023-02-28T05:15:46;-1.00;87.20
27978;DHT22;15314;49.248;6.968;2023-02-28T05:16:46;-1.00;87.50
27978;DHT22;15314;49.248;6.968;2023-02-28T05:17:47;-1.00;87.60
27978;DHT22;15314;49.248;6.968;2023-02-28T05:18:47;-1.00;87.30
27978;DHT22;15314;49.248;6.968;2023-02-28T05:19:48;-0.90;87.50
27978;DHT22;15314;49.248;6.968;2023-02-28T05:20:49;-0.90;87.40
27978;DHT22;15314;49.248;6.968;2023-02-28T05:21:53;-1.00;87.40
27978;DHT22;15314;49.248;6.968;2023-02-28T05:22:54;-1.00;87.40
27978;DHT22;15314;49.248;6.968;2023-02-28T05:23:55;-1.00;87.60
27978;DHT22;15314;49.248;6.968;2023-02-28T05:24:56;-1.00;87.80
27978;DHT22;15314;49.248;6.968;2023-02-28T05:25:57;-1.10;87.90
27978;DHT22;15314;49.248;6.968;2023-02-28T05:26:58;-1.00;87.60
27978;DHT22;15314;49.248;6.968;2023-02-28T05:27:58;-0.90;87.90
27978;DHT22;15314;49.248;6.968;2023-02-28T05:28:59;-1.00;87.50
27978;DHT22;15314;49.248;6.968;2023-02-28T05:30:00;-1.00;87.20
27978;DHT22;15314;49.248;6.968;2023-02-28T05:31:03;-1.00;87.60
27978;DHT22;15314;49.248;6.968;2023-02-28T05:32:04;-1.00;87.30
27978;DHT22;15314;49.248;6.968;2023-02-28T05:33:05;-1.00;87.50
27978;DHT22;15314;49.248;6.968;2023-02-28T05:34:05;-1.00;87.70
27978;DHT22;15314;49.248;6.968;2023-02-28T05:35:06;-1.00;87.90
27978;DHT22;15314;49.248;6.968;2023-02-28T05:36:07;-1.00;87.80
27978;DHT22;15314;49.248;6.968;2023-02-28T05:37:13;-1.00;87.80
27978;DHT22;15314;49.248;6.968;2023-02-28T05:38:14;-1.00;88.00
27978;DHT22;15314;49.248;6.968;2023-02-28T05:39:14;-1.00;88.30
27978;DHT22;15314;49.248;6.968;2023-02-28T05:40:15;-1.10;88.10
27978;DHT22;15314;49.248;6.968;2023-02-28T05:41:17;-1.10;88.40
27978;DHT22;15314;49.248;6.968;2023-02-28T05:42:19;-1.10;88.60
27978;DHT22;15314;49.248;6.968;2023-02-28T05:43:20;-1.10;88.70
27978;DHT22;15314;49.248;6.968;2023-02-28T05:44:20;-1.10;88.50
27978;DHT22;15314;49.248;6.968;2023-02-28T05:45:21;-1.10;88.80
27978;DHT22;15314;49.248;6.968;2023-02-28T05:46:22;-1.10;88.60
27978;DHT22;15314;49.248;6.968;2023-02-28T05:47:22;-1.20;88.50
27978;DHT22;15314;49.248;6.968;2023-02-28T05:48:23;-1.10;88.80
27978;DHT22;15314;49.248;6.968;2023-02-28T05:49:23;-1.10;88.80
27978;DHT22;15314;49.248;6.968;2023-02-28T05:50:24;-1.10;89.00
27978;DHT22;15314;49.248;6.968;2023-02-28T05:51:25;-1.10;88.90
27978;DHT22;15314;49.248;6.968;2023-02-28T05:52:26;-1.10;88.90
27978;DHT22;15314;49.248;6.968;2023-02-28T05:53:27;-1.10;89.00
27978;DHT22;15314;49.248;6.968;2023-02-28T05:54:27;-1.10;89.20
27978;DHT22;15314;49.248;6.968;2023-02-28T05:55:28;-1.10;89.00
27978;DHT22;15314;49.248;6.968;2023-02-28T05:56:29;-1.10;89.30
27978;DHT22;15314;49.248;6.968;2023-02-28T05:57:29;-1.10;89.20
27978;DHT22;15314;49.248;6.968;2023-02-28T05:58:33;-1.10;89.10
27978;DHT22;15314;49.248;6.968;2023-02-28T05:59:34;-1.20;89.20
27978;DHT22;15314;49.248;6.968;2023-02-28T06:00:39;-1.10;89.60
27978;DHT22;15314;49.248;6.968;2023-02-28T06:01:42;-1.10;89.20
27978;DHT22;15314;49.248;6.968;2023-02-28T06:02:48;-1.10;89.00
27978;DHT22;15314;49.248;6.968;2023-02-28T06:03:49;-1.10;88.90
27978;DHT22;15314;49.248;6.968;2023-02-28T06:04:49;-1.10;88.80
27978;DHT22;15314;49.248;6.968;2023-02-28T06:05:50;-1.10;88.70
27978;DHT22;15314;49.248;6.968;2023-02-28T06:06:51;-1.10;88.60
27978;DHT22;15314;49.248;6.968;2023-02-28T06:07:52;-1.00;90.60
27978;DHT22;15314;49.248;6.968;2023-02-28T06:08:52;-0.90;90.50
27978;DHT22;15314;49.248;6.968;2023-02-28T06:09:53;-0.90;90.20
27978;DHT22;15314;49.248;6.968;2023-02-28T06:10:53;-0.80;90.00
27978;DHT22;15314;49.248;6.968;2023-02-28T06:11:54;-0.80;89.10
27978;DHT22;15314;49.248;6.968;2023-02-28T06:12:55;-0.90;88.90
27978;DHT22;15314;49.248;6.968;2023-02-28T06:13:57;-0.90;88.90
27978;DHT22;15314;49.248;6.968;2023-02-28T06:14:59;-0.90;88.80
27978;DHT22;15314;49.248;6.968;2023-02-28T06:16:03;-0.90;88.90
27978;DHT22;15314;49.248;6.968;2023-02-28T06:17:04;-0.80;88.80
27978;DHT22;15314;49.248;6.968;2023-02-28T06:18:05;-0.80;88.80
27978;DHT22;15314;49.248;6.968;2023-02-28T06:19:06;-0.90;89.00
27978;DHT22;15314;49.248;6.968;2023-02-28T06:20:08;-0.80;89.10
27978;DHT22;15314;49.248;6.968;2023-02-28T06:21:09;-0.80;89.00
27978;DHT22;15314;49.248;6.968;2023-02-28T06:22:09;-0.80;89.10
27978;DHT22;15314;49.248;6.968;2023-02-28T06:23:10;-0.90;89.20
27978;DHT22;15314;49.248;6.968;2023-02-28T06:24:11;-0.90;88.80
27978;DHT22;15314;49.248;6.968;2023-02-28T06:25:15;-0.90;89.90
27978;DHT22;15314;49.248;6.968;2023-02-28T06:26:16;-0.90;89.00
27978;DHT22;15314;49.248;6.968;2023-02-28T06:27:16;-0.90;89.20
27978;DHT22;15314;49.248;6.968;2023-02-28T06:28:17;-0.90;88.80
27978;DHT22;15314;49.248;6.968;2023-02-28T06:29:17;-0.90;88.70
27978;DHT22;15314;49.248;6.968;2023-02-28T06:30:18;-0.80;89.40
27978;DHT22;15314;49.248;6.968;2023-02-28T06:31:24;-0.80;89.20
27978;DHT22;15314;49.248;6.968;2023-02-28T06:32:26;-0.80;89.10
27978;DHT22;15314;49.248;6.968;2023-02-28T06:33:26;-0.80;88.90
27978;DHT22;15314;49.248;6.968;2023-02-28T06:34:27;-0.70;88.80
27978;DHT22;15314;49.248;6.968;2023-02-28T06:35:28;-0.60;88.70
27978;DHT22;15314;49.248;6.968;2023-02-28T06:36:29;-0.60;88.40
27978;DHT22;15314;49.248;6.968;2023-02-28T06:37:31;-0.60;88.70
27978;DHT22;15314;49.248;6.968;2023-02-28T06:38:32;-0.60;88.70
27978;DHT22;15314;49.248;6.968;2023-02-28T06:39:33;-0.50;88.50
27978;DHT22;15314;49.248;6.968;2023-02-28T06:40:34;-0.50;88.70
27978;DHT22;15314;49.248;6.968;2023-02-28T06:41:36;-0.50;88.30
27978;DHT22;15314;49.248;6.968;2023-02-28T06:42:38;-0.40;88.10
27978;DHT22;15314;49.248;6.968;2023-02-28T06:43:41;-0.40;87.90
27978;DHT22;15314;49.248;6.968;2023-02-28T06:44:44;-0.40;87.60
27978;DHT22;15314;49.248;6.968;2023-02-28T06:45:45;-0.30;87.40
27978;DHT22;15314;49.248;6.968;2023-02-28T06:46:46;-0.30;88.10
27978;DHT22;15314;49.248;6.968;2023-02-28T06:47:47;-0.40;88.10
27978;DHT22;15314;49.248;6.968;2023-02-28T06:48:52;-0.30;87.40
27978;DHT22;15314;49.248;6.968;2023-02-28T06:49:52;-0.20;87.40
27978;DHT22;15314;49.248;6.968;2023-02-28T06:51:02;-0.10;87.30
27978;DHT22;15314;49.248;6.968;2023-02-28T06:52:03;-0.10;87.40
27978;DHT22;15314;49.248;6.968;2023-02-28T06:53:04;-0.10;87.00
27978;DHT22;15314;49.248;6.968;2023-02-28T06:54:05;-0.10;87.00
27978;DHT22;15314;49.248;6.968;2023-02-28T06:55:09;0.00;86.60
27978;DHT22;15314;49.248;6.968;2023-02-28T06:56:12;0.00;86.60
27978;DHT22;15314;49.248;6.968;2023-02-28T06:57:13;0.10;86.00
27978;DHT22;15314;49.248;6.968;2023-02-28T06:58:13;0.10;85.90
27978;DHT22;15314;49.248;6.968;2023-02-28T06:59:21;0.10;86.00
27978;DHT22;15314;49.248;6.968;2023-02-28T07:00:21;0.10;85.60
27978;DHT22;15314;49.248;6.968;2023-02-28T07:01:23;0.20;85.70
27978;DHT22;15314;49.248;6.968;2023-02-28T07:02:24;0.20;85.80
27978;DHT22;15314;49.248;6.968;2023-02-28T07:03:25;0.20;85.70
27978;DHT22;15314;49.248;6.968;2023-02-28T07:04:26;0.30;85.80
27978;DHT22;15314;49.248;6.968;2023-02-28T07:05:26;0.30;85.50
27978;DHT22;15314;49.248;6.968;2023-02-28T07:06:27;0.30;85.30
27978;DHT22;15314;49.248;6.968;2023-02-28T07:07:28;0.20;85.50
27978;DHT22;15314;49.248;6.968;2023-02-28T07:08:28;0.40;85.60
27978;DHT22;15314;49.248;6.968;2023-02-28T07:09:29;0.50;85.20
27978;DHT22;15314;49.248;6.968;2023-02-28T07:10:30;0.50;85.40